createdAt,value
2018-02-20T00:02:10.348Z,97.10
2018-02-20T00:04:37.989Z,97.10
2018-02-20T00:07:05.626Z,97.10
2018-02-20T00:09:33.233Z,97.10
2018-02-20T00:12:00.857Z,97.10
2018-02-20T00:14:29.230Z,97.10
2018-02-20T00:16:56.888Z,97.00
2018-02-20T00:19:24.502Z,97.10
2018-02-20T00:21:52.131Z,97.00
2018-02-20T00:24:19.739Z,97.00
2018-02-20T00:26:48.130Z,96.60
2018-02-20T00:29:16.510Z,96.60
2018-02-20T00:31:45.056Z,96.60
2018-02-20T00:34:12.677Z,96.60
2018-02-20T00:36:41.088Z,96.30
2018-02-20T00:39:09.507Z,96.30
2018-02-20T00:41:37.155Z,96.30
2018-02-20T00:44:05.549Z,96.60
2018-02-20T00:46:33.186Z,96.60
2018-02-20T00:49:00.809Z,96.80
2018-02-20T00:51:28.457Z,96.90
2018-02-20T00:53:56.830Z,96.80
2018-02-20T00:56:24.421Z,96.80
2018-02-20T00:58:52.818Z,96.60
2018-02-20T01:01:20.466Z,96.60
2018-02-20T01:03:48.114Z,96.60
2018-02-20T01:06:15.751Z,96.50
2018-02-20T01:08:43.396Z,96.50
2018-02-20T01:11:11.937Z,96.50
2018-02-20T01:13:39.581Z,96.40
2018-02-20T01:16:07.188Z,96.50
2018-02-20T01:18:34.860Z,96.30
2018-02-20T01:21:02.633Z,96.30
2018-02-20T01:23:30.301Z,96.50
2018-02-20T01:25:57.893Z,96.40
2018-02-20T01:28:25.522Z,96.30
2018-02-20T01:30:54.047Z,96.40
2018-02-20T01:33:21.696Z,96.40
2018-02-20T01:35:49.397Z,96.40
2018-02-20T01:38:17.027Z,96.50
2018-02-20T01:40:45.484Z,96.50
2018-02-20T01:43:13.127Z,96.50
2018-02-20T01:45:40.757Z,96.60
2018-02-20T01:48:08.405Z,96.70
2018-02-20T01:50:36.010Z,96.70
2018-02-20T01:53:04.429Z,96.40
2018-02-20T01:55:32.057Z,96.30
2018-02-20T01:58:00.474Z,96.40
2018-02-20T02:00:28.921Z,96.30
2018-02-20T02:02:56.621Z,96.30
2018-02-20T02:05:24.250Z,96.40
2018-02-20T02:07:51.849Z,96.40
2018-02-20T02:10:19.478Z,96.40
2018-02-20T02:12:47.096Z,96.60
2018-02-20T02:15:14.731Z,96.50
2018-02-20T02:17:42.403Z,96.40
2018-02-20T02:20:10.042Z,96.40
2018-02-20T02:22:37.645Z,96.40
2018-02-20T02:25:05.275Z,96.50
2018-02-20T02:27:32.933Z,96.50
2018-02-20T02:30:00.619Z,96.50
2018-02-20T02:32:29.053Z,96.70
2018-02-20T02:34:56.752Z,96.70
2018-02-20T02:37:24.354Z,96.70
2018-02-20T02:39:52.012Z,96.70
2018-02-20T02:42:19.654Z,96.70
2018-02-20T02:44:47.275Z,96.90
2018-02-20T02:47:14.860Z,96.90
2018-02-20T02:49:42.464Z,97.00
2018-02-20T02:52:10.088Z,96.70
2018-02-20T02:54:37.841Z,96.80
2018-02-20T02:57:05.504Z,96.80
2018-02-20T02:59:33.149Z,96.80
2018-02-20T03:02:01.514Z,96.80
2018-02-20T03:04:29.152Z,96.80
2018-02-20T03:06:56.777Z,97.00
2018-02-20T03:09:24.360Z,96.80
2018-02-20T03:11:52.745Z,96.40
2018-02-20T03:14:23.164Z,96.40
2018-02-20T03:16:50.764Z,96.40
2018-02-20T03:19:19.200Z,96.50
2018-02-20T03:21:46.838Z,96.50
2018-02-20T03:24:15.218Z,96.70
2018-02-20T03:26:43.653Z,96.80
2018-02-20T03:29:11.268Z,96.80
2018-02-20T03:31:38.917Z,96.80
2018-02-20T03:34:06.512Z,96.80
2018-02-20T03:36:34.109Z,96.80
2018-02-20T03:39:02.484Z,96.70
2018-02-20T03:41:30.912Z,96.60
2018-02-20T03:43:58.521Z,96.60
2018-02-20T03:46:26.195Z,96.40
2018-02-20T03:48:53.789Z,96.30
2018-02-20T03:51:21.400Z,96.10
2018-02-20T03:53:49.077Z,96.10
2018-02-20T03:56:16.757Z,96.00
2018-02-20T03:58:44.418Z,95.80
2018-02-20T04:01:12.044Z,96.00
2018-02-20T04:03:39.688Z,96.00
2018-02-20T04:06:07.335Z,95.90
2018-02-20T04:08:34.974Z,96.30
2018-02-20T04:11:02.613Z,95.90
2018-02-20T04:13:30.233Z,95.60
2018-02-20T04:15:58.642Z,95.40
2018-02-20T04:21:23.305Z,95.20
2018-02-20T04:23:50.908Z,95.40
2018-02-20T04:26:18.584Z,95.50
2018-02-20T04:28:46.215Z,95.90
2018-02-20T04:31:13.841Z,96.10
2018-02-20T04:33:41.509Z,96.10
2018-02-20T04:36:09.157Z,96.30
2018-02-20T04:38:36.773Z,96.30
2018-02-20T04:41:04.364Z,96.10
2018-02-20T04:43:32.736Z,96.60
2018-02-20T04:46:00.338Z,96.60
2018-02-20T04:48:46.920Z,96.80
2018-02-20T04:51:14.513Z,96.80
2018-02-20T04:53:42.931Z,96.60
2018-02-20T04:56:10.559Z,96.60
2018-02-20T04:58:38.178Z,96.50
2018-02-20T05:01:05.844Z,96.60
2018-02-20T05:03:33.469Z,96.70
2018-02-20T05:06:01.128Z,96.80
2018-02-20T05:08:28.809Z,96.60
2018-02-20T05:10:56.414Z,96.60
2018-02-20T05:13:24.796Z,96.70
2018-02-20T05:15:53.204Z,96.80
2018-02-20T05:18:21.601Z,96.30
2018-02-20T05:20:50.000Z,96.20
2018-02-20T05:23:17.590Z,96.20
2018-02-20T05:25:45.214Z,96.20
2018-02-20T05:28:12.876Z,96.30
2018-02-20T05:30:40.511Z,96.30
2018-02-20T05:33:08.167Z,96.30
2018-02-20T05:35:35.786Z,96.50
2018-02-20T05:38:03.383Z,97.00
2018-02-20T05:40:31.198Z,96.80
2018-02-20T05:42:58.803Z,96.40
2018-02-20T05:45:26.433Z,96.30
2018-02-20T05:47:54.073Z,96.30
2018-02-20T05:50:22.465Z,96.20
2018-02-20T05:52:50.120Z,96.20
2018-02-20T05:55:18.566Z,96.50
2018-02-20T05:57:47.007Z,96.40
2018-02-20T06:00:14.633Z,96.40
2018-02-20T06:02:42.280Z,96.40
2018-02-20T06:05:11.416Z,95.90
2018-02-20T06:07:39.042Z,95.90
2018-02-20T06:10:08.173Z,96.00
2018-02-20T06:12:55.553Z,96.80
2018-02-20T06:15:23.205Z,96.70
2018-02-20T06:17:50.872Z,96.40
2018-02-20T06:23:25.056Z,96.40
2018-02-20T06:25:52.721Z,96.10
2018-02-20T06:28:20.340Z,96.10
2018-02-20T06:30:47.974Z,96.10
2018-02-20T06:33:15.842Z,96.20
2018-02-20T06:35:43.476Z,96.30
2018-02-20T06:38:11.095Z,96.40
2018-02-20T06:40:38.668Z,96.40
2018-02-20T06:43:06.323Z,96.20
2018-02-20T06:45:34.679Z,95.90
2018-02-20T06:48:02.426Z,95.90
2018-02-20T06:50:30.229Z,97.10
2018-02-20T06:52:57.983Z,96.40
2018-02-20T06:55:25.596Z,95.80
2018-02-20T06:57:54.039Z,95.60
2018-02-20T07:00:21.660Z,95.50
2018-02-20T07:02:49.357Z,95.50
2018-02-20T07:05:16.903Z,95.70
2018-02-20T07:07:44.527Z,95.20
2018-02-20T07:10:12.136Z,95.40
2018-02-20T07:12:39.818Z,95.10
2018-02-20T07:15:07.444Z,95.10
2018-02-20T07:17:35.114Z,94.60
2018-02-20T07:20:02.698Z,94.80
2018-02-20T07:22:30.356Z,94.70
2018-02-20T07:24:58.693Z,94.50
2018-02-20T07:27:26.340Z,94.50
2018-02-20T07:29:53.964Z,94.30
2018-02-20T07:32:21.592Z,94.30
2018-02-20T07:34:49.371Z,94.10
2018-02-20T07:37:17.085Z,93.70
2018-02-20T07:39:44.673Z,94.00
2018-02-20T07:42:13.089Z,93.60
2018-02-20T07:44:40.696Z,93.60
2018-02-20T07:47:08.304Z,93.70
2018-02-20T07:49:36.701Z,93.40
2018-02-20T07:52:05.105Z,93.10
2018-02-20T07:54:33.488Z,93.30
2018-02-20T07:57:01.928Z,92.80
2018-02-20T07:59:29.512Z,92.70
2018-02-20T08:01:57.166Z,92.70
2018-02-20T08:04:24.812Z,92.90
2018-02-20T08:06:53.234Z,92.50
2018-02-20T08:09:20.883Z,92.40
2018-02-20T08:11:48.548Z,92.30
2018-02-20T08:14:16.205Z,91.80
2018-02-20T08:16:44.646Z,92.40
2018-02-20T08:19:12.337Z,92.30
2018-02-20T08:21:39.984Z,92.50
2018-02-20T08:24:07.673Z,92.40
2018-02-20T08:26:35.267Z,91.80
2018-02-20T08:29:02.926Z,91.70
2018-02-20T08:31:30.571Z,91.80
2018-02-20T08:33:58.208Z,91.60
2018-02-20T08:36:25.791Z,91.80
2018-02-20T08:38:54.321Z,91.20
2018-02-20T08:41:21.896Z,91.20
2018-02-20T08:43:49.677Z,90.90
2018-02-20T08:46:17.705Z,90.60
2018-02-20T08:48:45.404Z,90.70
2018-02-20T08:51:13.813Z,90.20
2018-02-20T08:53:41.443Z,90.10
2018-02-20T08:56:09.163Z,87.10
2018-02-20T08:58:36.861Z,87.50
2018-02-20T09:01:04.457Z,87.60
2018-02-20T09:03:32.062Z,86.90
2018-02-20T09:06:00.448Z,89.70
2018-02-20T09:08:28.851Z,89.00
2018-02-20T09:10:56.457Z,88.90
2018-02-20T09:13:24.061Z,89.40
2018-02-20T09:15:52.618Z,90.40
2018-02-20T09:18:20.275Z,90.70
2018-02-20T09:20:52.872Z,90.10
2018-02-20T09:23:20.494Z,90.20
2018-02-20T09:25:51.683Z,90.00
2018-02-20T09:28:20.129Z,87.80
2018-02-20T09:30:47.809Z,87.80
2018-02-20T09:33:16.951Z,86.50
2018-02-20T09:35:45.382Z,87.50
2018-02-20T09:38:12.984Z,87.50
2018-02-20T09:40:40.614Z,86.70
2018-02-20T09:43:08.226Z,86.80
2018-02-20T09:45:35.886Z,86.90
2018-02-20T09:48:03.494Z,88.30
2018-02-20T09:50:31.940Z,90.10
2018-02-20T09:52:59.573Z,90.10
2018-02-20T09:55:27.952Z,90.00
2018-02-20T09:57:55.615Z,90.00
2018-02-20T10:00:24.028Z,89.20
2018-02-20T10:02:52.466Z,90.00
2018-02-20T10:05:20.130Z,90.00
2018-02-20T10:07:47.755Z,89.10
2018-02-20T10:10:15.344Z,88.50
2018-02-20T10:12:43.732Z,87.60
2018-02-20T10:15:12.151Z,88.40
2018-02-20T10:17:39.816Z,88.40
2018-02-20T10:20:07.450Z,88.50
2018-02-20T10:22:35.801Z,88.40
2018-02-20T10:25:03.449Z,88.40
2018-02-20T10:27:31.034Z,88.10
2018-02-20T10:29:58.647Z,88.20
2018-02-20T10:32:26.282Z,87.10
2018-02-20T10:34:53.905Z,86.00
2018-02-20T10:37:21.548Z,84.50
2018-02-20T10:39:49.156Z,83.30
2018-02-20T10:42:16.760Z,85.00
2018-02-20T10:44:44.325Z,84.10
2018-02-20T10:47:11.953Z,85.90
2018-02-20T10:49:39.735Z,85.10
2018-02-20T10:52:07.347Z,86.00
2018-02-20T10:54:35.736Z,88.10
2018-02-20T10:57:04.193Z,87.40
2018-02-20T10:59:31.796Z,87.40
2018-02-20T11:01:59.444Z,86.90
2018-02-20T11:04:27.116Z,87.00
2018-02-20T11:06:54.747Z,86.20
2018-02-20T11:09:22.345Z,86.10
2018-02-20T11:11:50.004Z,85.00
2018-02-20T11:14:17.708Z,85.90
2018-02-20T11:16:45.355Z,87.30
2018-02-20T11:19:12.998Z,87.60
2018-02-20T11:21:40.595Z,86.90
2018-02-20T11:24:08.189Z,87.40
2018-02-20T11:26:35.817Z,87.10
2018-02-20T11:29:03.467Z,84.50
2018-02-20T11:31:31.862Z,84.90
2018-02-20T11:33:59.524Z,84.80
2018-02-20T11:36:27.893Z,84.60
2018-02-20T11:38:55.490Z,84.60
2018-02-20T11:41:23.201Z,84.40
2018-02-20T11:43:50.827Z,84.80
2018-02-20T11:46:18.429Z,84.10
2018-02-20T11:48:46.813Z,82.40
2018-02-20T11:51:15.199Z,80.40
2018-02-20T11:53:42.782Z,80.40
2018-02-20T11:56:11.212Z,79.60
2018-02-20T11:58:38.839Z,79.60
2018-02-20T12:01:07.237Z,81.40
2018-02-20T12:03:35.601Z,81.70
2018-02-20T12:06:03.220Z,81.70
2018-02-20T12:08:31.002Z,79.70
2018-02-20T12:10:58.644Z,80.70
2018-02-20T12:13:26.233Z,81.70
2018-02-20T12:15:54.618Z,81.50
2018-02-20T12:18:22.964Z,81.00
2018-02-20T12:20:50.611Z,81.00
2018-02-20T12:23:18.216Z,81.80
2018-02-20T12:25:45.828Z,82.70
2018-02-20T12:28:13.455Z,84.00
2018-02-20T12:30:41.072Z,80.90
2018-02-20T12:33:09.587Z,79.60
2018-02-20T12:35:37.165Z,79.50
2018-02-20T12:38:04.817Z,81.40
2018-02-20T12:40:33.246Z,78.90
2018-02-20T12:43:00.874Z,78.70
2018-02-20T12:45:29.270Z,77.50
2018-02-20T12:47:57.759Z,77.60
2018-02-20T12:50:25.306Z,77.60
2018-02-20T12:52:52.924Z,79.50
2018-02-20T12:55:20.522Z,80.20
2018-02-20T12:57:48.205Z,81.00
2018-02-20T13:00:15.859Z,82.30
2018-02-20T13:02:43.473Z,78.90
2018-02-20T13:05:11.211Z,80.90
2018-02-20T13:07:38.873Z,81.50
2018-02-20T13:10:06.560Z,82.10
2018-02-20T13:12:34.213Z,80.80
2018-02-20T13:15:01.846Z,80.30
2018-02-20T13:17:30.253Z,76.70
2018-02-20T13:19:57.861Z,76.70
2018-02-20T13:22:25.650Z,77.30
2018-02-20T13:24:53.300Z,79.40
2018-02-20T13:27:20.934Z,81.40
2018-02-20T13:29:48.552Z,80.70
2018-02-20T13:32:16.185Z,80.00
2018-02-20T13:34:43.834Z,79.70
2018-02-20T13:37:11.450Z,80.10
2018-02-20T13:39:39.837Z,77.80
2018-02-20T13:42:08.255Z,75.00
2018-02-20T13:44:35.878Z,74.90
2018-02-20T13:47:03.519Z,75.70
2018-02-20T13:49:31.145Z,76.90
2018-02-20T13:51:58.736Z,79.20
2018-02-20T13:54:27.094Z,80.10
2018-02-20T13:56:55.512Z,80.20
2018-02-20T13:59:23.938Z,80.80
2018-02-20T14:01:51.570Z,80.80
2018-02-20T14:04:19.965Z,82.80
2018-02-20T14:06:48.349Z,81.60
2018-02-20T14:09:15.941Z,81.60
2018-02-20T14:11:44.350Z,79.70
2018-02-20T14:14:11.980Z,79.70
2018-02-20T14:16:39.612Z,80.30
2018-02-20T14:19:07.267Z,82.00
2018-02-20T14:21:34.933Z,82.90
2018-02-20T14:24:02.576Z,82.40
2018-02-20T14:26:30.158Z,84.30
2018-02-20T14:29:00.501Z,83.50
2018-02-20T14:31:28.154Z,83.40
2018-02-20T14:33:55.887Z,83.60
2018-02-20T14:36:23.553Z,84.20
2018-02-20T14:38:51.179Z,83.90
2018-02-20T14:41:18.821Z,84.50
2018-02-20T14:43:46.455Z,84.90
2018-02-20T14:46:14.069Z,85.40
2018-02-20T14:48:41.687Z,85.20
2018-02-20T14:51:10.049Z,86.40
2018-02-20T14:53:37.694Z,86.30
2018-02-20T14:56:05.373Z,87.20
2018-02-20T14:58:32.999Z,86.40
2018-02-20T15:01:02.424Z,85.20
2018-02-20T15:03:30.815Z,85.00
2018-02-20T15:05:58.417Z,85.00
2018-02-20T15:08:26.073Z,85.70
2018-02-20T15:10:53.648Z,86.50
2018-02-20T15:13:21.347Z,87.30
2018-02-20T15:15:48.960Z,89.20
2018-02-20T15:18:16.565Z,90.00
2018-02-20T15:20:44.174Z,89.40
2018-02-20T15:23:11.806Z,88.70
2018-02-20T15:25:39.417Z,88.50
2018-02-20T15:28:07.089Z,88.40
2018-02-20T15:30:34.785Z,88.60
2018-02-20T15:33:02.428Z,87.90
2018-02-20T15:35:30.044Z,87.80
2018-02-20T15:37:57.659Z,87.80
2018-02-20T15:40:25.315Z,89.20
2018-02-20T15:42:53.838Z,90.10
2018-02-20T15:45:21.458Z,90.10
2018-02-20T15:47:49.093Z,90.30
2018-02-20T15:50:16.716Z,90.80
2018-02-20T15:52:45.154Z,91.20
2018-02-20T15:55:12.848Z,91.20
2018-02-20T15:57:40.489Z,91.10
2018-02-20T16:00:08.084Z,91.30
2018-02-20T16:02:35.710Z,91.10
2018-02-20T16:05:04.068Z,91.70
2018-02-20T16:07:31.817Z,91.80
2018-02-20T16:09:59.434Z,92.30
2018-02-20T16:12:27.860Z,93.00
2018-02-20T16:14:55.458Z,93.00
2018-02-20T16:17:23.077Z,93.20
2018-02-20T16:19:51.468Z,93.10
2018-02-20T16:22:19.841Z,93.40
2018-02-20T16:24:47.505Z,93.30
2018-02-20T16:27:15.892Z,93.60
2018-02-20T16:29:43.512Z,93.60
2018-02-20T16:32:13.158Z,94.10
2018-02-20T16:34:40.863Z,94.00
2018-02-20T16:37:11.037Z,94.70
2018-02-20T16:39:40.057Z,95.00
2018-02-20T16:42:08.676Z,95.00
2018-02-20T16:44:36.313Z,95.20
2018-02-20T16:47:04.685Z,95.30
2018-02-20T16:49:32.425Z,95.30
2018-02-20T16:52:00.081Z,95.40
2018-02-20T16:54:27.732Z,95.50
2018-02-20T16:56:55.324Z,95.60
2018-02-20T16:59:22.961Z,95.40
2018-02-20T17:01:51.407Z,95.80
2018-02-20T17:04:19.152Z,95.50
2018-02-20T17:06:46.828Z,95.70
2018-02-20T17:09:14.505Z,95.80
2018-02-20T17:11:42.128Z,95.90
2018-02-20T17:14:09.767Z,96.10
2018-02-20T17:16:37.422Z,96.10
2018-02-20T17:19:05.036Z,96.30
2018-02-20T17:21:32.709Z,96.40
2018-02-20T17:24:00.287Z,96.30
2018-02-20T17:26:27.900Z,96.50
2018-02-20T17:28:56.281Z,96.60
2018-02-20T17:31:25.835Z,96.80
2018-02-20T17:33:53.455Z,96.70
2018-02-20T17:36:21.054Z,96.90
2018-02-20T17:38:49.453Z,97.00
2018-02-20T17:41:17.862Z,96.90
2018-02-20T17:43:46.240Z,96.80
2018-02-20T17:46:14.675Z,96.70
2018-02-20T17:48:42.350Z,96.70
2018-02-20T17:51:10.019Z,96.70
2018-02-20T17:53:37.685Z,96.80
2018-02-20T17:56:05.352Z,96.90
2018-02-20T17:58:33.879Z,97.10
2018-02-20T18:01:01.521Z,97.20
2018-02-20T18:03:29.131Z,97.40
2018-02-20T18:05:56.765Z,97.40
2018-02-20T18:08:24.444Z,97.40
2018-02-20T18:10:52.111Z,97.50
2018-02-20T18:13:19.777Z,97.60
2018-02-20T18:15:47.427Z,97.50
2018-02-20T18:18:15.415Z,97.40
2018-02-20T18:20:43.114Z,97.70
2018-02-20T18:23:10.763Z,97.80
2018-02-20T18:25:39.123Z,98.00
2018-02-20T18:28:06.804Z,98.00
2018-02-20T18:30:34.584Z,98.00
2018-02-20T18:33:02.290Z,98.10
2018-02-20T18:35:30.696Z,98.40
2018-02-20T18:37:58.428Z,98.30
2018-02-20T18:40:26.157Z,98.30
2018-02-20T18:42:53.826Z,98.30
2018-02-20T18:45:21.553Z,98.20
2018-02-20T18:47:49.237Z,98.20
2018-02-20T18:50:16.936Z,98.00
2018-02-20T18:52:44.600Z,97.70
2018-02-20T18:55:12.993Z,97.30
2018-02-20T18:57:41.464Z,97.50
2018-02-20T19:00:09.148Z,97.50
2018-02-20T19:02:36.859Z,97.40
2018-02-20T19:05:04.468Z,97.50
2018-02-20T19:07:32.117Z,97.50
2018-02-20T19:09:59.784Z,97.70
2018-02-20T19:12:27.436Z,97.90
2018-02-20T19:14:57.070Z,98.00
2018-02-20T19:17:24.736Z,98.00
2018-02-20T19:19:53.580Z,97.90
2018-02-20T19:22:21.176Z,98.00
2018-02-20T19:24:48.811Z,98.00
2018-02-20T19:27:16.444Z,98.10
2018-02-20T19:29:44.785Z,98.20
2018-02-20T19:32:12.552Z,98.20
2018-02-20T19:34:40.128Z,98.30
2018-02-20T19:37:11.279Z,98.30
2018-02-20T19:39:39.132Z,98.30
2018-02-20T19:42:06.758Z,98.20
2018-02-20T19:44:34.662Z,98.40
2018-02-20T19:47:03.117Z,98.50
2018-02-20T19:49:31.648Z,97.90
2018-02-20T19:51:59.292Z,97.90
2018-02-20T19:54:27.097Z,97.80
2018-02-20T19:56:54.818Z,97.70
2018-02-20T19:59:22.480Z,97.60
2018-02-20T20:01:50.276Z,97.70
2018-02-20T20:04:17.961Z,97.50
2018-02-20T20:06:45.584Z,97.70
2018-02-20T20:09:13.972Z,97.40
2018-02-20T20:11:42.390Z,97.30
2018-02-20T20:14:10.073Z,97.30
2018-02-20T20:16:37.724Z,97.40
2018-02-20T20:19:05.748Z,97.50
2018-02-20T20:21:33.489Z,97.50
2018-02-20T20:24:01.144Z,97.60
2018-02-20T20:26:29.551Z,97.20
2018-02-20T20:28:57.188Z,97.20
2018-02-20T20:31:24.795Z,97.10
2018-02-20T20:33:53.161Z,96.90
2018-02-20T20:36:21.631Z,97.10
2018-02-20T20:38:49.282Z,97.10
2018-02-20T20:41:17.043Z,97.20
2018-02-20T20:43:46.477Z,97.60
2018-02-20T20:46:14.071Z,97.30
2018-02-20T20:48:41.746Z,97.50
2018-02-20T20:51:10.318Z,97.50
2018-02-20T20:53:39.491Z,97.40
2018-02-20T20:56:07.885Z,97.60
2018-02-20T20:58:35.547Z,97.60
2018-02-20T21:01:03.934Z,97.80
2018-02-20T21:03:32.296Z,97.80
2018-02-20T21:05:59.967Z,97.80
2018-02-20T21:08:42.701Z,97.40
2018-02-20T21:11:10.333Z,97.30
2018-02-20T21:13:37.940Z,97.30
2018-02-20T21:16:13.671Z,97.20
2018-02-20T21:18:41.357Z,97.30
2018-02-20T21:21:08.980Z,97.30
2018-02-20T21:23:37.715Z,97.40
2018-02-20T21:26:05.446Z,97.40
2018-02-20T21:28:33.176Z,97.20
2018-02-20T21:31:00.858Z,97.30
2018-02-20T21:33:28.468Z,97.40
2018-02-20T21:35:56.108Z,97.40
2018-02-20T21:38:23.730Z,97.30
2018-02-20T21:40:52.123Z,97.30
2018-02-20T21:43:20.501Z,97.60
2018-02-20T21:45:48.147Z,97.30
2018-02-20T21:48:15.778Z,97.40
2018-02-20T21:50:43.421Z,97.50
2018-02-20T21:53:11.812Z,97.50
2018-02-20T21:55:39.647Z,97.40
2018-02-20T21:58:07.292Z,97.40
2018-02-20T22:00:35.656Z,97.50
2018-02-20T22:03:03.316Z,97.50
2018-02-20T22:05:30.937Z,97.40
2018-02-20T22:07:58.630Z,97.40
2018-02-20T22:10:26.228Z,97.40
2018-02-20T22:12:53.860Z,97.20
2018-02-20T22:15:21.460Z,97.20
2018-02-20T22:17:49.118Z,97.10
2018-02-20T22:20:16.821Z,97.20
2018-02-20T22:22:44.421Z,97.30
2018-02-20T22:25:12.049Z,97.40
2018-02-20T22:27:39.702Z,97.30
2018-02-20T22:30:07.336Z,97.40
2018-02-20T22:32:35.000Z,97.30
2018-02-20T22:35:02.641Z,97.40
2018-02-20T22:37:30.246Z,97.50
2018-02-20T22:39:58.636Z,97.90
2018-02-20T22:42:26.296Z,97.60
2018-02-20T22:44:53.934Z,97.60
2018-02-20T22:47:21.577Z,97.60
2018-02-20T22:49:50.018Z,96.90
2018-02-20T22:52:17.684Z,97.20
2018-02-20T22:54:45.302Z,97.20
2018-02-20T22:57:13.046Z,97.20
2018-02-20T22:59:40.708Z,97.20
2018-02-20T23:02:08.369Z,97.20
2018-02-20T23:04:35.988Z,97.20
2018-02-20T23:07:03.651Z,97.40
2018-02-20T23:09:31.269Z,97.50
2018-02-20T23:11:59.747Z,97.30
2018-02-20T23:14:27.343Z,97.30
2018-02-20T23:16:55.775Z,97.50
2018-02-20T23:19:23.444Z,97.50
2018-02-20T23:21:51.075Z,97.40
2018-02-20T23:24:19.512Z,97.50
2018-02-20T23:26:47.148Z,97.50
2018-02-20T23:29:15.558Z,97.40
2018-02-20T23:31:43.264Z,97.40
2018-02-20T23:34:10.875Z,97.40
2018-02-20T23:36:39.265Z,97.40
2018-02-20T23:39:07.631Z,97.40
2018-02-20T23:41:35.236Z,97.40
2018-02-20T23:44:02.948Z,97.40
2018-02-20T23:46:30.629Z,97.40
2018-02-20T23:48:58.294Z,97.40
2018-02-20T23:51:31.827Z,97.30
2018-02-20T23:53:59.430Z,97.30
2018-02-20T23:56:27.016Z,97.40
2018-02-20T23:58:55.433Z,97.40
